Time;durP1;ratioP1;P1;durP2;ratioP2;P2;SDS_P1;SDS_P2;PMS_P1;PMS_P2;Temp;Humidity;BMP_temperature;BMP_pressure;BME280_temperature;BME280_humidity;BME280_pressure;Samples;Min_cycle;Max_cycle;Signal;HPM_P1;HPM_P2
2021/12/03 00:01:40;;;;;;;22.70;20.85;;;;;;;-1.66;100.00;101129.03;5246288;28;20020;-83
2021/12/03 00:04:10;;;;;;;23.50;21.67;;;;;;;-1.34;100.00;101176.59;5245357;28;20031;-84
2021/12/03 00:06:40;;;;;;;25.05;22.60;;;;;;;-1.99;100.00;101089.41;5247349;28;20131;-83
2021/12/03 00:09:11;;;;;;;21.40;19.40;;;;;;;-1.81;100.00;101120.97;5246740;28;20054;-84
2021/12/03 00:11:41;;;;;;;24.77;21.58;;;;;;;-2.14;100.00;101077.88;5242661;28;20044;-84
2021/12/03 00:14:12;;;;;;;21.63;19.83;;;;;;;-2.19;100.00;101088.94;5238502;28;20025;-83
2021/12/03 00:16:42;;;;;;;23.63;21.20;;;;;;;-1.33;100.00;101210.03;5237792;28;20110;-84
2021/12/03 00:19:12;;;;;;;21.88;19.85;;;;;;;-1.67;100.00;101191.75;5237476;28;20020;-83
2021/12/03 00:21:43;;;;;;;26.67;21.10;;;;;;;-1.65;100.00;101200.34;5236543;28;20032;-83
2021/12/03 00:24:13;;;;;;;24.13;21.15;;;;;;;-1.63;100.00;101181.66;5235323;28;20021;-82
2021/12/03 00:26:44;;;;;;;21.30;19.75;;;;;;;-1.77;100.00;101159.34;5233588;28;20035;-82
2021/12/03 00:29:14;;;;;;;25.30;19.17;;;;;;;-1.53;100.00;101204.31;5234154;28;20021;-82
2021/12/03 00:31:44;;;;;;;20.80;19.05;;;;;;;-1.62;100.00;101184.13;5237382;28;20029;-82
2021/12/03 00:34:15;;;;;;;26.83;19.88;;;;;;;-2.21;100.00;101100.69;5244843;28;20021;-84
2021/12/03 00:36:45;;;;;;;20.00;18.17;;;;;;;-1.88;100.00;101149.09;5243811;28;20052;-83
2021/12/03 00:39:16;;;;;;;17.70;16.00;;;;;;;-1.49;100.00;101195.03;5243990;28;20043;-84
2021/12/03 00:41:51;;;;;;;20.75;18.60;;;;;;;-2.02;100.00;101107.47;5245575;28;20032;-82
2021/12/03 00:44:24;;;;;;;19.70;17.73;;;;;;;-1.80;100.00;101157.03;5244439;28;20032;-82
2021/12/03 00:47:00;;;;;;;18.73;16.92;;;;;;;-1.55;100.00;101211.59;5243070;28;20086;-81
2021/12/03 00:49:31;;;;;;;20.77;18.80;;;;;;;-1.58;100.00;101227.81;5246275;28;20478;-83
2021/12/03 00:52:01;;;;;;;18.73;16.92;;;;;;;-1.57;100.00;101224.19;5246829;28;20029;-83
2021/12/03 00:54:32;;;;;;;17.40;15.70;;;;;;;-1.95;100.00;101156.06;5245218;28;20029;-82
2021/12/03 00:57:03;;;;;;;16.98;15.75;;;;;;;-2.75;100.00;101048.31;5246701;28;20054;-83
2021/12/03 00:59:34;;;;;;;19.90;15.23;;;;;;;-1.52;100.00;101224.50;5243819;28;20019;-83
2021/12/03 01:02:04;;;;;;;17.85;15.98;;;;;;;-2.25;100.00;101088.78;5238309;28;20025;-83
2021/12/03 01:04:35;;;;;;;17.08;15.48;;;;;;;-2.34;100.00;101035.09;5236905;28;20035;-83
2021/12/03 01:07:05;;;;;;;17.98;15.75;;;;;;;-1.06;100.00;101240.59;5238120;28;20021;-83
2021/12/03 01:09:36;;;;;;;16.60;15.45;;;;;;;-0.94;100.00;101231.28;5238221;28;20032;-82
2021/12/03 01:12:09;;;;;;;18.52;16.73;;;;;;;-1.29;100.00;101162.84;5238285;28;20115;-81
2021/12/03 01:14:41;;;;;;;20.20;16.90;;;;;;;-0.76;100.00;101217.78;5240725;22;20045;-56
2021/12/03 01:17:11;;;;;;;17.45;15.80;;;;;;;-0.60;100.00;101219.53;5224341;28;20048;-59
2021/12/03 01:19:42;;;;;;;20.00;17.85;;;;;;;-0.55;100.00;101225.13;5224422;28;20400;-59
2021/12/03 01:22:12;;;;;;;17.23;16.02;;;;;;;-0.60;100.00;101228.31;5224557;28;20500;-59
2021/12/03 01:24:43;;;;;;;18.95;17.10;;;;;;;-0.71;100.00;101226.88;5224242;28;20033;-58
2021/12/03 01:27:14;;;;;;;17.58;15.98;;;;;;;-0.87;100.00;101219.00;5224641;28;20052;-58
2021/12/03 01:29:55;;;;;;;17.65;15.57;;;;;;;-0.96;100.00;101224.50;5225538;28;20028;-59
2021/12/03 01:32:26;;;;;;;16.23;14.90;;;;;;;-1.05;100.00;101235.13;5224563;28;20511;-61
2021/12/03 01:34:56;;;;;;;15.95;14.85;;;;;;;-1.10;100.00;101236.63;5223989;28;20021;-58
2021/12/03 01:37:27;;;;;;;18.65;17.25;;;;;;;-1.10;100.00;101233.97;5224519;28;20025;-59
2021/12/03 01:39:58;;;;;;;16.58;15.18;;;;;;;-1.03;100.00;101232.31;5224781;28;20203;-59
2021/12/03 01:42:28;;;;;;;18.80;17.25;;;;;;;-1.04;100.00;101228.84;5225345;28;20025;-59
2021/12/03 01:44:59;;;;;;;20.88;16.88;;;;;;;-1.06;100.00;101228.19;5224909;28;20107;-59
2021/12/03 01:47:30;;;;;;;17.63;16.23;;;;;;;-1.09;100.00;101227.69;5225167;28;20044;-60
2021/12/03 01:50:00;;;;;;;19.70;17.85;;;;;;;-1.07;100.00;101225.69;5225345;28;20017;-59
2021/12/03 01:52:31;;;;;;;18.67;16.85;;;;;;;-1.05;100.00;101219.22;5225115;28;20459;-60
2021/12/03 01:55:03;;;;;;;18.05;16.60;;;;;;;-1.08;100.00;101210.78;5224981;28;20021;-59
2021/12/03 01:57:34;;;;;;;20.25;18.25;;;;;;;-1.15;100.00;101199.22;5224851;28;20025;-60
2021/12/03 02:00:22;;;;;;;19.08;17.27;;;;;;;-1.07;100.00;101215.91;5225174;28;20047;-60
2021/12/03 02:02:53;;;;;;;23.27;20.13;;;;;;;-1.06;100.00;101208.78;5226316;28;20036;-61
2021/12/03 02:05:24;;;;;;;19.25;17.92;;;;;;;-1.04;100.00;101210.28;5224917;28;20028;-59
2021/12/03 02:07:54;;;;;;;19.00;17.40;;;;;;;-1.19;100.00;101176.72;5224729;28;20045;-59
2021/12/03 02:10:25;;;;;;;20.65;18.65;;;;;;;-1.13;100.00;101198.03;5224981;28;20078;-60
2021/12/03 02:12:56;;;;;;;23.10;18.60;;;;;;;-1.06;100.00;101216.75;5224950;28;20128;-60
2021/12/03 02:15:27;;;;;;;20.10;18.50;;;;;;;-1.16;100.00;101208.19;5224604;28;20084;-60
2021/12/03 02:17:57;;;;;;;19.52;17.65;;;;;;;-1.22;100.00;101214.16;5224839;28;20025;-60
2021/12/03 02:20:28;;;;;;;19.02;17.42;;;;;;;-1.16;100.00;101224.09;5225902;28;20029;-58
2021/12/03 02:26:25;;;;;;;18.40;17.10;;;;;;;-1.28;100.00;101210.38;5235295;22;20044;-59
2021/12/03 02:28:56;;;;;;;20.85;18.90;;;;;;;-1.29;100.00;101208.72;5207859;28;20025;-60
2021/12/03 02:31:26;;;;;;;21.58;16.92;;;;;;;-1.29;100.00;101203.41;5208382;28;20278;-60
2021/12/03 02:33:57;;;;;;;19.50;17.67;;;;;;;-1.26;100.00;101204.91;5223568;28;20052;-61
2021/12/03 02:36:27;;;;;;;17.05;15.77;;;;;;;-1.26;100.00;101192.47;5224938;28;20056;-59
2021/12/03 02:38:58;;;;;;;27.88;18.65;;;;;;;-1.43;100.00;101178.44;5224702;28;20378;-60
2021/12/03 02:41:29;;;;;;;20.00;17.95;;;;;;;-1.33;100.00;101210.03;5224768;28;20484;-60
2021/12/03 02:43:59;;;;;;;25.20;18.42;;;;;;;-1.36;100.00;101213.84;5224281;28;20492;-60
2021/12/03 02:46:30;;;;;;;20.60;18.42;;;;;;;-1.42;100.00;101214.53;5224562;28;20047;-62
2021/12/03 02:49:00;;;;;;;18.48;16.95;;;;;;;-1.44;100.00;101221.00;5224134;28;20033;-62
2021/12/03 02:51:31;;;;;;;17.67;16.52;;;;;;;-1.45;100.00;101227.31;5227206;28;20036;-62
2021/12/03 02:54:02;;;;;;;18.50;16.80;;;;;;;-1.62;100.00;101197.38;5227947;28;20029;-62
2021/12/03 02:56:32;;;;;;;27.50;18.98;;;;;;;-1.43;100.00;101214.69;5229597;28;20021;-62
2021/12/03 02:59:04;;;;;;;18.05;16.42;;;;;;;-1.46;100.00;101218.53;5228081;28;20023;-61
2021/12/03 03:01:34;;;;;;;19.48;17.63;;;;;;;-1.45;100.00;101209.59;5228110;28;20496;-61
2021/12/03 03:04:05;;;;;;;20.08;18.58;;;;;;;-1.36;100.00;101205.91;5227936;28;20032;-62
2021/12/03 03:06:36;;;;;;;20.17;18.30;;;;;;;-1.33;100.00;101206.56;5227823;28;20447;-61
2021/12/03 03:09:10;;;;;;;20.08;18.33;;;;;;;-1.25;100.00;101206.56;5228104;28;20017;-62
2021/12/03 03:11:41;;;;;;;21.90;19.83;;;;;;;-1.26;100.00;101194.31;5228020;28;20033;-61
2021/12/03 03:14:11;;;;;;;20.05;18.27;;;;;;;-1.18;100.00;101207.53;5227961;28;20035;-61
2021/12/03 03:16:42;;;;;;;20.90;18.73;;;;;;;-1.16;100.00;101203.72;5228255;28;20025;-61
2021/12/03 03:19:22;;;;;;;24.17;18.42;;;;;;;-1.12;100.00;101190.91;5227992;28;20401;-62
2021/12/03 03:21:53;;;;;;;19.80;17.75;;;;;;;-1.03;100.00;101200.50;5227929;28;20497;-62
2021/12/03 03:24:24;;;;;;;21.13;18.77;;;;;;;-0.94;100.00;101194.19;5227697;28;20086;-62
2021/12/03 03:26:54;;;;;;;22.48;16.95;;;;;;;-0.92;100.00;101186.88;5227862;28;20120;-61
2021/12/03 03:29:25;;;;;;;20.55;18.08;;;;;;;-0.81;100.00;101194.44;5227452;28;20120;-62
2021/12/03 03:31:56;;;;;;;24.05;20.48;;;;;;;-0.77;100.00;101195.75;5227669;28;20056;-61
2021/12/03 03:34:26;;;;;;;23.20;20.70;;;;;;;-0.71;100.00;101199.53;5227409;28;20032;-61
2021/12/03 03:36:57;;;;;;;18.45;16.38;;;;;;;-0.63;100.00;101211.94;5228189;28;20025;-61
2021/12/03 03:39:27;;;;;;;20.40;18.48;;;;;;;-0.58;100.00;101217.53;5227855;28;20021;-61
2021/12/03 03:41:58;;;;;;;20.63;18.80;;;;;;;-0.60;100.00;101208.94;5227423;28;20025;-62
2021/12/03 03:44:30;;;;;;;16.95;15.25;;;;;;;-0.53;100.00;101201.91;5227492;28;20033;-62
2021/12/03 03:47:01;;;;;;;23.05;20.40;;;;;;;-0.49;100.00;101204.03;5227435;28;20025;-61
2021/12/03 03:49:33;;;;;;;20.80;18.63;;;;;;;-0.59;100.00;101168.16;5227289;28;20124;-61
2021/12/03 03:52:06;;;;;;;20.02;17.65;;;;;;;-0.46;100.00;101186.94;5227273;28;20086;-62
2021/12/03 03:54:37;;;;;;;22.20;19.77;;;;;;;-0.51;100.00;101184.81;5227370;28;20095;-62
2021/12/03 03:57:07;;;;;;;26.73;18.20;;;;;;;-0.54;100.00;101193.13;5227514;28;20310;-62
2021/12/03 03:59:38;;;;;;;28.10;17.65;;;;;;;-0.46;100.00;101187.75;5227263;28;20456;-60
2021/12/03 04:02:08;;;;;;;21.40;16.88;;;;;;;-0.50;100.00;101185.63;5226593;28;20070;-61
2021/12/03 04:04:39;;;;;;;19.77;14.90;;;;;;;-0.48;100.00;101188.94;5226330;28;20400;-61
2021/12/03 04:07:09;;;;;;;19.75;14.82;;;;;;;-0.51;100.00;101179.50;5226790;28;20059;-61
2021/12/03 04:09:40;;;;;;;17.83;16.08;;;;;;;-0.46;100.00;101200.19;5226942;28;20412;-61
2021/12/03 04:12:12;;;;;;;15.57;14.30;;;;;;;-0.46;100.00;101193.06;5226904;28;20021;-60
2021/12/03 04:14:43;;;;;;;19.10;17.10;;;;;;;-0.41;100.00;101179.28;5226682;28;20024;-61
2021/12/03 04:17:13;;;;;;;20.10;18.05;;;;;;;-0.51;100.00;101166.25;5226809;28;20124;-60
2021/12/03 04:19:44;;;;;;;16.40;14.70;;;;;;;-0.39;100.00;101169.31;5226681;28;20120;-61
2021/12/03 04:22:17;;;;;;;23.08;16.55;;;;;;;-0.41;100.00;101161.53;5226604;28;20052;-61
2021/12/03 04:24:48;;;;;;;16.33;14.70;;;;;;;-0.39;100.00;101171.97;5226698;28;20036;-61
2021/12/03 04:27:19;;;;;;;15.23;13.93;;;;;;;-0.39;100.00;101171.97;5226713;28;20559;-61
2021/12/03 04:29:50;;;;;;;15.30;13.95;;;;;;;-0.43;100.00;101170.66;5226430;28;20028;-61
2021/12/03 04:32:22;;;;;;;12.93;11.75;;;;;;;-0.47;100.00;101166.72;5226967;28;20515;-60
2021/12/03 04:34:53;;;;;;;17.20;15.65;;;;;;;-1.69;100.00;100968.69;5391334;22;20086;-93
2021/12/03 04:37:24;;;;;;;23.10;15.82;;;;;;;-1.71;100.00;100958.28;5256743;28;20029;-91
2021/12/03 04:40:03;;;;;;;18.88;14.15;;;;;;;-1.74;100.00;100989.59;5249085;28;20055;-92
2021/12/03 04:42:44;;;;;;;18.63;13.75;;;;;;;-1.74;100.00;100993.06;5250429;28;20047;-93
2021/12/03 04:45:21;;;;;;;14.48;13.35;;;;;;;-2.11;100.00;100937.31;5250889;28;20084;-91
2021/12/03 04:47:53;;;;;;;14.75;13.32;;;;;;;-0.51;100.00;101176.03;5280225;22;20037;-57
2021/12/03 04:50:27;;;;;;;17.75;14.50;;;;;;;-0.55;100.00;101175.53;5245352;28;20037;-60
2021/12/03 04:52:58;;;;;;;18.40;13.60;;;;;;;-0.55;100.00;101178.19;5245372;28;20545;-60
2021/12/03 04:55:29;;;;;;;21.65;13.95;;;;;;;-0.55;100.00;101180.03;5245182;28;20036;-60
2021/12/03 04:57:59;;;;;;;14.82;12.80;;;;;;;-0.55;100.00;101178.19;5245383;28;20381;-62
2021/12/03 05:00:37;;;;;;;15.88;12.85;;;;;;;-0.55;100.00;101194.13;5245419;28;20495;-60
2021/12/03 05:03:08;;;;;;;17.92;13.90;;;;;;;-0.55;100.00;101182.69;5245309;28;20048;-62
2021/12/03 05:05:47;;;;;;;26.17;13.02;;;;;;;-0.50;100.00;101177.69;5244935;28;20067;-62
2021/12/03 05:08:17;;;;;;;18.15;14.32;;;;;;;-0.63;100.00;101137.66;5245425;28;20024;-59
2021/12/03 05:10:48;;;;;;;14.60;13.20;;;;;;;-0.44;100.00;101161.88;5245023;28;20044;-60
2021/12/03 05:13:23;;;;;;;15.63;14.07;;;;;;;-0.42;100.00;101157.22;5245070;28;20397;-57
2021/12/03 05:15:55;;;;;;;21.58;14.82;;;;;;;-0.41;100.00;101153.56;5244986;28;20037;-59
2021/12/03 05:18:28;;;;;;;16.60;14.73;;;;;;;-0.37;100.00;101154.88;5245069;28;20107;-59
2021/12/03 05:21:01;;;;;;;14.45;13.20;;;;;;;-0.38;100.00;101144.44;5245065;28;20024;-62
2021/12/03 05:23:32;;;;;;;26.67;12.05;;;;;;;-0.35;100.00;101155.53;5244642;28;20020;-59
2021/12/03 05:26:04;;;;;;;26.85;15.23;;;;;;;-0.35;100.00;101146.75;5244359;28;20093;-63
2021/12/03 05:28:34;;;;;;;18.23;11.68;;;;;;;-0.39;100.00;101140.13;5244727;28;20031;-58
2021/12/03 05:31:05;;;;;;;24.42;11.20;;;;;;;-0.33;100.00;101149.22;5244698;28;20024;-60
2021/12/03 05:33:35;;;;;;;20.30;11.27;;;;;;;-0.33;100.00;101152.69;5244437;28;20392;-60
2021/12/03 05:36:06;;;;;;;22.77;13.45;;;;;;;-0.33;100.00;101150.03;5244906;28;20071;-60
2021/12/03 05:38:38;;;;;;;13.50;12.10;;;;;;;-0.37;100.00;101148.75;5244836;28;20025;-60
2021/12/03 05:41:08;;;;;;;23.48;13.65;;;;;;;-0.30;100.00;101154.19;5244788;28;20486;-60
2021/12/03 05:43:39;;;;;;;21.33;13.13;;;;;;;-0.32;100.00;101151.69;5244540;28;20073;-59
2021/12/03 05:46:09;;;;;;;13.52;11.32;;;;;;;-0.30;100.00;101160.31;5244634;28;20066;-60
2021/12/03 05:48:40;;;;;;;22.95;15.10;;;;;;;-0.30;100.00;101157.66;5244500;28;20028;-61
2021/12/03 05:51:11;;;;;;;16.25;11.82;;;;;;;-0.30;100.00;101152.34;5238223;28;20507;-61
2021/12/03 05:53:41;;;;;;;13.35;11.85;;;;;;;-0.43;100.00;101138.84;5244528;28;20107;-60
2021/12/03 05:56:12;;;;;;;30.15;13.55;;;;;;;-0.30;100.00;101156.84;5244402;28;20123;-59
2021/12/03 05:58:42;;;;;;;15.70;11.50;;;;;;;-0.30;100.00;101155.00;5244595;28;20077;-59
2021/12/03 06:01:13;;;;;;;14.52;13.07;;;;;;;-0.30;100.00;101149.69;5244024;28;20492;-62
2021/12/03 06:03:46;;;;;;;28.33;12.90;;;;;;;-0.29;100.00;101151.34;5243478;28;20468;-60
2021/12/03 06:06:17;;;;;;;12.20;11.20;;;;;;;-0.31;100.00;101157.84;5244473;28;20396;-59
2021/12/03 06:08:47;;;;;;;19.13;13.95;;;;;;;-0.27;100.00;101145.84;5244311;28;20031;-60
2021/12/03 06:11:18;;;;;;;20.27;12.45;;;;;;;-0.26;100.00;101155.44;5244082;28;20032;-61
2021/12/03 06:13:49;;;;;;;12.25;11.02;;;;;;;-0.29;100.00;101146.03;5243680;28;20395;-60
2021/12/03 06:16:20;;;;;;;35.53;15.43;;;;;;;-0.30;100.00;101146.22;5243994;28;20035;-63
2021/12/03 06:18:50;;;;;;;14.10;12.80;;;;;;;-0.29;100.00;101140.72;5244113;28;20095;-62
2021/12/03 06:21:21;;;;;;;18.02;11.95;;;;;;;-0.32;100.00;101135.78;5243962;28;20032;-60
2021/12/03 06:23:52;;;;;;;11.93;10.52;;;;;;;-0.32;100.00;101138.44;5243645;28;20040;-60
2021/12/03 06:26:22;;;;;;;24.33;11.98;;;;;;;-0.33;100.00;101139.44;5245206;28;20035;-62
2021/12/03 06:28:53;;;;;;;19.95;12.68;;;;;;;-0.30;100.00;101144.38;5248098;28;20021;-62
2021/12/03 06:31:24;;;;;;;18.08;13.45;;;;;;;-0.30;100.00;101143.56;5247785;28;20029;-60
2021/12/03 06:33:54;;;;;;;18.92;11.82;;;;;;;-0.33;100.00;101138.59;5248665;28;20051;-59
2021/12/03 06:36:25;;;;;;;26.83;11.50;;;;;;;-0.30;100.00;101148.88;5248088;28;20032;-57
2021/12/03 06:38:57;;;;;;;14.15;11.88;;;;;;;-0.28;100.00;101147.66;5247670;28;20111;-61
2021/12/03 06:41:27;;;;;;;13.73;12.13;;;;;;;-0.26;100.00;101148.31;5247710;28;20380;-60
2021/12/03 06:43:58;;;;;;;13.98;11.88;;;;;;;-0.24;100.00;101141.00;5244883;28;20031;-61
2021/12/03 06:46:30;;;;;;;14.30;12.70;;;;;;;-0.27;100.00;101138.69;5247655;28;20116;-59
2021/12/03 06:49:01;;;;;;;16.85;13.10;;;;;;;-0.30;100.00;101131.13;5247486;28;20025;-60
2021/12/03 06:51:32;;;;;;;19.38;12.20;;;;;;;-0.39;100.00;101118.91;5247486;28;20168;-59
2021/12/03 06:54:04;;;;;;;15.68;10.48;;;;;;;-0.26;100.00;101140.34;5247229;28;20029;-60
2021/12/03 06:56:47;;;;;;;18.58;11.35;;;;;;;-0.27;100.00;101133.38;5247502;28;20063;-61
2021/12/03 06:59:23;;;;;;;25.65;10.93;;;;;;;-0.28;100.00;101138.88;5247502;28;20432;-60
2021/12/03 07:01:54;;;;;;;22.70;12.15;;;;;;;-0.29;100.00;101142.56;5247462;28;20028;-60
2021/12/03 07:04:24;;;;;;;23.08;12.68;;;;;;;-0.39;100.00;101121.56;5247104;28;20051;-62
2021/12/03 07:06:55;;;;;;;20.98;11.43;;;;;;;-0.44;100.00;101102.69;5247331;28;20017;-59
2021/12/03 07:09:26;;;;;;;23.30;10.90;;;;;;;-0.28;100.00;101128.25;5247243;28;20030;-60
2021/12/03 07:11:56;;;;;;;21.45;11.88;;;;;;;-0.27;100.00;101128.09;5247183;28;20021;-58
2021/12/03 07:14:27;;;;;;;26.48;11.73;;;;;;;-0.45;100.00;101093.91;5246601;28;20574;-60
2021/12/03 07:17:05;;;;;;;13.55;11.43;;;;;;;-0.27;100.00;101116.63;5247090;28;20032;-62
2021/12/03 07:19:35;;;;;;;15.65;10.68;;;;;;;-0.27;100.00;101120.13;5247128;28;20020;-62
2021/12/03 07:22:06;;;;;;;20.90;11.02;;;;;;;-0.37;100.00;101098.34;5246972;28;20020;-62
2021/12/03 07:24:36;;;;;;;23.73;11.48;;;;;;;-0.33;100.00;101094.31;5246780;28;20086;-58
2021/12/03 07:27:07;;;;;;;12.43;11.13;;;;;;;-0.23;100.00;101117.94;5246879;28;20024;-62
2021/12/03 07:29:37;;;;;;;19.88;12.15;;;;;;;-0.30;100.00;101117.03;5246865;28;20094;-59
2021/12/03 07:32:08;;;;;;;22.67;11.27;;;;;;;-0.22;100.00;101124.91;5246444;28;20499;-59
2021/12/03 07:34:38;;;;;;;14.18;10.10;;;;;;;-0.16;100.00;101129.50;5246628;28;20476;-63
2021/12/03 07:37:09;;;;;;;25.65;12.93;;;;;;;-0.24;100.00;101116.28;5246706;28;20026;-61
2021/12/03 07:39:40;;;;;;;18.85;9.82;;;;;;;-0.18;100.00;101111.09;5246975;28;20077;-60
2021/12/03 07:42:11;;;;;;;12.05;10.90;;;;;;;-0.26;100.00;101092.59;5246595;28;20396;-61
2021/12/03 07:44:42;;;;;;;21.23;10.48;;;;;;;-0.20;100.00;101097.19;5247692;28;20028;-59
2021/12/03 07:47:13;;;;;;;15.80;10.70;;;;;;;-0.06;100.00;101109.66;5246464;28;20542;-61
2021/12/03 07:49:44;;;;;;;13.60;11.43;;;;;;;0.04;100.00;101114.69;5246390;28;20060;-59
2021/12/03 07:52:16;;;;;;;12.55;10.40;;;;;;;0.06;100.00;101112.69;5246354;28;20032;-58
2021/12/03 07:54:48;;;;;;;23.50;11.68;;;;;;;0.11;100.00;101112.16;5246111;28;20119;-60
2021/12/03 07:57:19;;;;;;;26.23;11.20;;;;;;;0.14;100.00;101090.53;5246312;28;20021;-59
2021/12/03 07:59:49;;;;;;;20.15;11.88;;;;;;;0.17;100.00;101101.63;5246150;28;20024;-59
2021/12/03 08:02:20;;;;;;;23.77;15.05;;;;;;;0.21;100.00;101099.44;5230939;28;20388;-58
2021/12/03 08:04:50;;;;;;;21.25;10.02;;;;;;;0.22;100.00;101091.28;5224766;28;20021;-56
2021/12/03 08:07:21;;;;;;;20.10;10.85;;;;;;;0.23;100.00;101086.81;5225254;28;20021;-56
2021/12/03 08:09:51;;;;;;;13.63;10.60;;;;;;;0.27;100.00;101088.91;5225250;28;20032;-57
2021/12/03 08:12:22;;;;;;;16.52;12.13;;;;;;;0.26;100.00;101071.34;5224594;28;20247;-59
2021/12/03 08:14:52;;;;;;;14.93;11.88;;;;;;;0.29;100.00;101078.91;5224933;28;20025;-58
2021/12/03 08:17:23;;;;;;;12.20;10.98;;;;;;;0.46;100.00;101084.88;5225235;28;20033;-57
2021/12/03 08:19:53;;;;;;;27.67;13.27;;;;;;;0.55;100.00;101097.06;5225052;28;20135;-59
2021/12/03 08:22:24;;;;;;;15.10;10.77;;;;;;;0.60;100.00;101083.19;5224804;28;20039;-57
2021/12/03 08:24:54;;;;;;;16.15;11.40;;;;;;;0.64;100.00;101082.63;5224602;28;20053;-57
2021/12/03 08:27:25;;;;;;;16.05;11.77;;;;;;;0.64;100.00;101082.63;5225122;28;20041;-59
2021/12/03 08:29:56;;;;;;;13.43;10.73;;;;;;;0.64;100.00;101087.94;5224897;28;20119;-57
2021/12/03 08:32:26;;;;;;;13.60;11.65;;;;;;;0.63;100.00;101086.31;5224727;28;20115;-57
2021/12/03 08:34:57;;;;;;;13.75;12.23;;;;;;;0.66;100.00;101077.97;5224502;28;20029;-55
2021/12/03 08:37:27;;;;;;;12.63;10.88;;;;;;;0.69;100.00;101092.72;5224585;28;20036;-57
2021/12/03 08:39:58;;;;;;;25.75;11.23;;;;;;;0.67;100.00;101090.25;5224717;28;20439;-59
2021/12/03 08:42:28;;;;;;;12.57;11.30;;;;;;;0.76;100.00;101092.81;5224366;28;20039;-57
2021/12/03 08:44:59;;;;;;;21.48;12.63;;;;;;;0.77;100.00;101083.81;5224198;28;20060;-57
2021/12/03 08:47:31;;;;;;;12.90;10.23;;;;;;;0.81;100.00;101090.41;5224412;28;20362;-57
2021/12/03 08:50:08;;;;;;;20.20;10.23;;;;;;;0.86;100.00;101094.19;5223805;28;20040;-57
2021/12/03 08:53:07;;;;;;;14.80;10.27;;;;;;;0.76;100.00;101066.22;5224265;28;20028;-59
2021/12/03 08:55:39;;;;;;;15.43;10.85;;;;;;;0.82;100.00;101054.84;5224203;28;20398;-58
2021/12/03 08:58:11;;;;;;;11.63;10.60;;;;;;;0.98;100.00;101066.06;5224251;28;20032;-58
2021/12/03 09:00:43;;;;;;;12.55;9.32;;;;;;;1.05;100.00;101071.47;5224228;28;20116;-57
2021/12/03 09:03:13;;;;;;;20.70;11.18;;;;;;;1.12;100.00;101060.91;5224156;28;20564;-58
2021/12/03 09:05:46;;;;;;;15.57;11.25;;;;;;;1.15;100.00;101071.16;5224025;28;20086;-57
2021/12/03 09:08:16;;;;;;;15.10;9.73;;;;;;;1.16;100.00;101062.97;5224175;28;20027;-58
2021/12/03 09:10:47;;;;;;;9.50;8.80;;;;;;;1.20;100.00;101069.56;5223793;28;20032;-57
2021/12/03 09:13:17;;;;;;;10.23;9.23;;;;;;;1.30;100.00;101082.56;5223588;28;20032;-59
2021/12/03 09:15:57;;;;;;;15.48;10.82;;;;;;;1.39;100.00;101070.78;5223873;28;20033;-57
2021/12/03 09:18:31;;;;;;;15.18;9.43;;;;;;;1.50;100.00;101062.25;5223998;28;20036;-57
2021/12/03 09:21:19;;;;;;;9.10;8.30;;;;;;;1.38;100.00;101023.91;5223642;28;20021;-59
2021/12/03 09:26:22;;;;;;;15.27;11.02;;;;;;;1.71;100.00;101053.44;5225361;28;20033;-59
2021/12/03 09:29:17;;;;;;;10.20;9.23;;;;;;;1.73;100.00;101050.59;5224231;28;20032;-56
2021/12/03 09:31:48;;;;;;;11.68;10.50;;;;;;;1.76;100.00;101050.19;5223987;28;20056;-57
2021/12/03 09:34:20;;;;;;;15.32;11.75;;;;;;;1.74;100.00;101041.56;5223538;28;20123;-60
2021/12/03 09:36:52;;;;;;;10.25;9.23;;;;;;;1.87;100.00;101045.16;5224196;28;20249;-55
2021/12/03 09:39:24;;;;;;;11.30;9.82;;;;;;;1.82;100.00;101018.28;5223189;28;20473;-59
2021/12/03 09:41:56;;;;;;;17.02;9.88;;;;;;;2.01;100.00;101038.91;5223445;28;20031;-57
2021/12/03 09:44:30;;;;;;;17.58;11.18;;;;;;;2.06;100.00;101037.47;5223362;28;20028;-57
2021/12/03 09:47:01;;;;;;;14.52;12.07;;;;;;;2.03;100.00;101034.19;5223772;28;20374;-57
2021/12/03 09:49:33;;;;;;;17.40;10.45;;;;;;;2.14;100.00;101032.81;5223690;28;20037;-57
2021/12/03 09:52:19;;;;;;;18.20;11.88;;;;;;;2.13;100.00;101023.19;5223542;28;20025;-57
2021/12/03 09:54:53;;;;;;;10.77;9.77;;;;;;;2.20;100.00;101020.56;5223560;28;20053;-56
2021/12/03 10:00:34;;;;;;;12.80;11.73;;;;;;;2.28;100.00;101015.91;5201679;28;20121;-59
2021/12/03 10:14:37;;;;;;;11.93;10.70;;;;;;;2.42;100.00;101000.78;5228869;28;20461;-57
2021/12/03 10:23:25;;;;;;;10.48;9.57;;;;;;;2.63;100.00;100984.63;5228924;28;20025;-59
2021/12/03 10:25:48;;;;;;;11.27;9.60;;;;;;;2.55;100.00;100947.53;5228245;28;20463;-57
2021/12/03 10:31:40;;;;;;;11.55;10.38;;;;;;;2.83;100.00;100957.22;5228886;28;20091;-60
2021/12/03 10:53:08;;;;;;;8.55;7.90;;;;;;;3.31;100.00;100905.28;5208541;28;20079;-59
2021/12/03 11:12:34;;;;;;;;;;;;;;;3.62;100.00;100901.13;5208431;28;20171;-60
2021/12/03 12:34:41;;;;;;;6.30;5.80;;;;;;;4.26;100.00;100722.00;5236625;28;20431;-59
2021/12/03 14:49:09;;;;;;;6.75;6.10;;;;;;;3.32;100.00;100594.69;5185823;28;20132;-60
2021/12/03 14:54:34;;;;;;;5.63;5.32;;;;;;;3.35;100.00;100591.59;5250263;28;20036;-59
2021/12/03 14:57:14;;;;;;;6.05;5.43;;;;;;;3.32;100.00;100589.34;5248473;28;20620;-59
2021/12/03 14:59:52;;;;;;;5.53;5.13;;;;;;;3.33;100.00;100582.16;5248759;28;20024;-58
2021/12/03 15:08:37;;;;;;;5.13;4.93;;;;;;;3.27;100.00;100583.81;5251180;28;20127;-57
2021/12/03 15:33:44;;;;;;;6.07;5.78;;;;;;;3.13;100.00;100560.94;5205069;28;20048;-58
2021/12/03 15:36:24;;;;;;;4.40;4.20;;;;;;;3.10;100.00;100565.88;5208077;28;20060;-58
2021/12/03 15:39:13;;;;;;;5.60;5.30;;;;;;;3.07;100.00;100556.47;5207435;28;20460;-58
2021/12/03 16:20:36;;;;;;;3.73;3.63;;;;;;;3.13;100.00;100512.09;5207338;28;20040;-59
2021/12/03 16:54:05;;;;;;;4.80;4.60;;;;;;;2.88;100.00;100474.72;5256729;28;20075;-84
2021/12/03 16:56:43;;;;;;;5.28;4.97;;;;;;;3.10;100.00;100505.34;5256568;28;20024;-84
2021/12/03 16:59:14;;;;;;;6.68;5.53;;;;;;;2.54;100.00;100412.78;5255127;28;20025;-82
2021/12/03 17:02:07;;;;;;;4.95;4.60;;;;;;;3.01;100.00;100475.44;5256776;28;20032;-85
2021/12/03 17:27:32;;;;;;;5.85;5.55;;;;;;;2.95;100.00;100433.63;5257033;28;20036;-84
2021/12/03 17:56:35;;;;;;;4.30;4.10;;;;;;;2.85;100.00;100387.97;5255644;28;20024;-85
2021/12/03 17:59:16;;;;;;;4.90;4.60;;;;;;;2.77;100.00;100388.22;5254903;28;20482;-87
2021/12/03 18:02:02;;;;;;;5.18;4.82;;;;;;;2.81;100.00;100383.28;5256516;28;20016;-83
2021/12/03 18:04:58;;;;;;;4.90;4.70;;;;;;;2.97;100.00;100401.41;5256206;28;20056;-85
2021/12/03 18:18:57;;;;;;;5.68;5.32;;;;;;;2.87;100.00;100371.75;5256430;28;20085;-83
2021/12/03 18:57:20;;;;;;;5.03;4.78;;;;;;;2.78;100.00;100317.06;5194950;28;20068;-83
2021/12/03 18:59:56;;;;;;;5.75;5.45;;;;;;;3.06;100.00;100360.09;5234162;28;20397;-84
2021/12/03 19:02:28;;;;;;;5.32;5.13;;;;;;;2.90;100.00;100331.28;5236574;28;20092;-85
2021/12/03 19:05:08;;;;;;;5.18;4.97;;;;;;;3.09;100.00;100346.31;5234593;28;20171;-84
2021/12/03 19:08:45;;;;;;;5.82;5.43;;;;;;;3.00;100.00;100329.78;5235242;28;20025;-83
2021/12/03 19:10:48;;;;;;;5.87;5.47;;;;;;;3.13;100.00;100346.69;5226289;28;20040;-84
2021/12/03 19:13:25;;;;;;;5.15;4.85;;;;;;;2.97;100.00;100321.38;5233299;28;20390;-83
2021/12/03 19:15:56;;;;;;;5.25;4.88;;;;;;;3.03;100.00;100317.84;5233991;28;20051;-82
2021/12/03 19:18:27;;;;;;;4.63;4.43;;;;;;;3.03;100.00;100323.19;5233302;28;20032;-83
2021/12/03 19:20:58;;;;;;;5.63;5.32;;;;;;;3.06;100.00;100322.75;5252943;28;20020;-82
2021/12/03 19:23:28;;;;;;;5.43;5.18;;;;;;;2.56;100.00;100248.13;5252773;28;20048;-86
2021/12/03 19:25:59;;;;;;;5.32;5.13;;;;;;;3.04;100.00;100320.28;5253403;28;20074;-84